Time;durP1;ratioP1;P1;durP2;ratioP2;P2;SDS_P1;SDS_P2;PMS_P1;PMS_P2;Temp;Humidity;BMP_temperature;BMP_pressure;BME280_temperature;BME280_humidity;BME280_pressure;Samples;Min_cycle;Max_cycle;Signal;HPM_P1;HPM_P2
2021/07/03 00:01:19;;;;;;;16.37;8.30;;;16.00;99.90;;;;;;4962670;28;20542;-75
2021/07/03 00:03:46;;;;;;;9.80;6.97;;;16.00;99.90;;;;;;4940540;28;21490;-76
2021/07/03 00:06:13;;;;;;;14.13;7.40;;;15.90;99.90;;;;;;4965708;28;20498;-76
2021/07/03 00:08:40;;;;;;;9.20;7.20;;;15.90;99.90;;;;;;4944468;28;20572;-76
2021/07/03 00:11:09;;;;;;;18.40;8.40;;;15.90;99.90;;;;;;4971401;28;20523;-76
2021/07/03 00:13:36;;;;;;;12.73;9.00;;;16.00;99.90;;;;;;4944360;28;20461;-76
2021/07/03 00:16:05;;;;;;;11.77;7.43;;;15.90;99.90;;;;;;4935799;28;20556;-76
2021/07/03 00:18:32;;;;;;;11.63;7.43;;;15.90;99.90;;;;;;4951883;28;20452;-76
2021/07/03 00:20:59;;;;;;;9.67;7.13;;;15.80;99.90;;;;;;4942975;28;20567;-76
2021/07/03 00:23:26;;;;;;;11.33;8.13;;;15.80;99.90;;;;;;4948663;28;20492;-77
2021/07/03 00:25:53;;;;;;;14.97;7.70;;;15.80;99.90;;;;;;4941234;28;20488;-76
2021/07/03 00:28:21;;;;;;;10.43;7.83;;;15.80;99.90;;;;;;4950403;28;20629;-76
2021/07/03 00:30:48;;;;;;;13.83;6.60;;;15.50;99.90;;;;;;4944371;28;20512;-76
2021/07/03 00:33:15;;;;;;;15.63;7.20;;;15.50;99.90;;;;;;4944764;28;20514;-75
2021/07/03 00:35:43;;;;;;;10.80;6.83;;;15.50;99.90;;;;;;4946447;28;20872;-76
2021/07/03 00:38:09;;;;;;;9.63;6.50;;;15.50;99.90;;;;;;4947226;28;20533;-76
2021/07/03 00:40:36;;;;;;;7.43;5.67;;;15.60;99.90;;;;;;4943756;28;20567;-76
2021/07/03 00:43:03;;;;;;;9.60;6.77;;;15.50;99.90;;;;;;4946236;28;20459;-76
2021/07/03 00:45:32;;;;;;;12.30;6.80;;;15.60;99.90;;;;;;4941807;28;20472;-75
2021/07/03 00:47:59;;;;;;;10.37;6.30;;;15.60;99.90;;;;;;4948075;28;20584;-76
2021/07/03 00:50:26;;;;;;;11.23;5.77;;;15.60;99.90;;;;;;4949145;28;20565;-75
2021/07/03 00:52:53;;;;;;;10.43;6.30;;;15.50;99.90;;;;;;4945936;28;20456;-75
2021/07/03 00:55:20;;;;;;;8.77;5.67;;;15.40;99.90;;;;;;4950617;28;20476;-75
2021/07/03 00:57:47;;;;;;;10.10;5.73;;;15.40;99.90;;;;;;4942953;28;20475;-76
2021/07/03 01:00:16;;;;;;;10.30;6.00;;;15.30;99.90;;;;;;4943538;28;20488;-75
2021/07/03 01:02:45;;;;;;;11.20;7.80;;;15.40;99.90;;;;;;4950141;28;20480;-75
2021/07/03 01:05:12;;;;;;;11.40;7.13;;;15.40;99.90;;;;;;4946372;28;20542;-75
2021/07/03 01:07:40;;;;;;;12.63;5.90;;;15.40;99.90;;;;;;4996160;28;20510;-75
2021/07/03 01:10:17;;;;;;;14.20;5.80;;;15.20;99.90;;;;;;4946238;28;20522;-76
2021/07/03 01:12:44;;;;;;;11.00;7.63;;;15.20;99.90;;;;;;4942547;28;20495;-76
2021/07/03 01:15:12;;;;;;;11.13;6.57;;;15.10;99.90;;;;;;4946730;28;20448;-75
2021/07/03 01:17:39;;;;;;;12.23;7.63;;;15.20;99.90;;;;;;4987125;28;20486;-73
2021/07/03 01:20:09;;;;;;;14.20;7.13;;;15.20;99.90;;;;;;4947772;28;20567;-76
2021/07/03 01:22:37;;;;;;;9.40;6.57;;;15.20;99.90;;;;;;4953211;28;20530;-76
2021/07/03 01:25:05;;;;;;;10.17;7.30;;;15.20;99.90;;;;;;4948410;28;20468;-76
2021/07/03 01:27:32;;;;;;;13.33;7.73;;;15.20;99.90;;;;;;4944104;28;20572;-74
2021/07/03 01:30:00;;;;;;;9.83;6.80;;;15.00;99.90;;;;;;4947744;28;20488;-76
2021/07/03 01:32:27;;;;;;;8.80;5.90;;;14.80;99.90;;;;;;4949632;28;20518;-76
2021/07/03 01:34:53;;;;;;;11.07;6.73;;;14.90;99.90;;;;;;4950312;28;20539;-75
2021/07/03 01:37:20;;;;;;;7.47;5.50;;;14.90;99.90;;;;;;4948438;28;20457;-75
2021/07/03 01:39:51;;;;;;;12.20;7.13;;;15.00;99.90;;;;;;4954900;28;20562;-75
2021/07/03 01:42:18;;;;;;;8.67;6.70;;;15.00;99.90;;;;;;4947782;28;20560;-75
2021/07/03 01:44:46;;;;;;;10.53;6.10;;;15.20;99.90;;;;;;4940658;28;20531;-76
2021/07/03 01:47:13;;;;;;;8.97;5.37;;;15.20;99.90;;;;;;4959925;28;20508;-75
2021/07/03 01:49:45;;;;;;;10.47;5.50;;;15.10;99.90;;;;;;4943715;28;20566;-75
2021/07/03 01:52:15;;;;;;;10.57;7.07;;;14.90;99.90;;;;;;4966868;28;20931;-75
2021/07/03 01:54:42;;;;;;;9.90;6.97;;;14.90;99.90;;;;;;4949917;28;20451;-76
2021/07/03 01:57:11;;;;;;;11.00;5.73;;;14.70;99.90;;;;;;4970651;28;20447;-75
2021/07/03 01:59:38;;;;;;;12.43;6.80;;;14.50;99.90;;;;;;4947775;28;20495;-75
2021/07/03 02:02:05;;;;;;;12.07;6.57;;;14.60;99.90;;;;;;4944071;28;20984;-75
2021/07/03 02:04:33;;;;;;;11.70;7.03;;;14.70;99.90;;;;;;4950496;28;20476;-75
2021/07/03 02:07:00;;;;;;;11.00;7.50;;;14.80;99.90;;;;;;4945281;28;20529;-75
2021/07/03 02:09:27;;;;;;;10.33;6.90;;;14.80;99.90;;;;;;4945943;28;20702;-73
2021/07/03 02:11:53;;;;;;;11.83;6.67;;;14.80;99.90;;;;;;4941729;28;20493;-76
2021/07/03 02:14:22;;;;;;;10.63;7.27;;;14.80;99.90;;;;;;4960300;28;20549;-76
2021/07/03 02:16:49;;;;;;;9.57;6.57;;;14.80;99.90;;;;;;4947153;28;20908;-76
2021/07/03 02:19:16;;;;;;;14.23;7.57;;;14.80;99.90;;;;;;4945412;28;20983;-76
2021/07/03 02:21:43;;;;;;;10.57;6.10;;;14.70;99.90;;;;;;4948335;28;21277;-76
2021/07/03 02:24:10;;;;;;;14.60;8.20;;;14.70;99.90;;;;;;4950875;28;20823;-76
2021/07/03 02:26:37;;;;;;;14.67;6.17;;;14.70;99.90;;;;;;4945241;28;20487;-73
2021/07/03 02:29:04;;;;;;;10.77;7.03;;;14.70;99.90;;;;;;4941184;28;20487;-76
2021/07/03 02:31:32;;;;;;;11.67;7.90;;;14.60;99.90;;;;;;4947402;28;20515;-75
2021/07/03 02:34:00;;;;;;;7.43;6.00;;;14.60;99.90;;;;;;4945986;28;20539;-76
2021/07/03 02:36:27;;;;;;;9.40;6.37;;;14.70;99.90;;;;;;4948049;28;20486;-76
2021/07/03 02:38:54;;;;;;;10.80;7.27;;;14.70;99.90;;;;;;4944527;28;20492;-76
2021/07/03 02:41:21;;;;;;;10.30;6.30;;;14.70;99.90;;;;;;4946364;28;20563;-76
2021/07/03 02:43:48;;;;;;;11.97;6.10;;;14.60;99.90;;;;;;4944986;28;20466;-75
2021/07/03 02:46:15;;;;;;;8.07;6.70;;;14.60;99.90;;;;;;4943298;28;20483;-76
2021/07/03 02:48:44;;;;;;;11.33;5.43;;;14.60;99.90;;;;;;4943006;28;20502;-76
2021/07/03 02:51:11;;;;;;;8.73;5.50;;;14.50;99.90;;;;;;4943366;28;21075;-73
2021/07/03 02:53:38;;;;;;;10.60;5.47;;;14.40;99.90;;;;;;4944070;28;20452;-75
2021/07/03 02:56:05;;;;;;;8.10;5.30;;;14.30;99.90;;;;;;4941872;28;20493;-75
2021/07/03 02:58:32;;;;;;;8.07;6.03;;;14.30;99.90;;;;;;4970504;28;20535;-76
2021/07/03 03:00:59;;;;;;;12.53;6.60;;;14.20;99.90;;;;;;4940408;28;20714;-75
2021/07/03 03:03:26;;;;;;;10.67;6.87;;;14.20;99.90;;;;;;4948468;28;20528;-75
2021/07/03 03:05:55;;;;;;;11.63;7.40;;;14.30;99.90;;;;;;4957557;28;20575;-75
2021/07/03 03:08:22;;;;;;;11.17;6.20;;;14.30;99.90;;;;;;4946056;28;20598;-75
2021/07/03 03:10:49;;;;;;;15.07;6.63;;;14.10;99.90;;;;;;4944638;28;20559;-75
2021/07/03 03:13:16;;;;;;;8.53;6.80;;;14.00;99.90;;;;;;4935977;28;21016;-76
2021/07/03 03:15:43;;;;;;;13.50;7.50;;;14.20;99.90;;;;;;4949458;28;20525;-75
2021/07/03 03:18:10;;;;;;;11.53;8.10;;;14.20;99.90;;;;;;4933518;28;20884;-75
2021/07/03 03:20:37;;;;;;;9.40;6.10;;;14.10;99.90;;;;;;4941335;28;20522;-74
2021/07/03 03:23:05;;;;;;;12.63;6.73;;;14.20;99.90;;;;;;4935275;28;20858;-74
2021/07/03 03:25:32;;;;;;;12.97;7.17;;;14.20;99.90;;;;;;4944762;28;20538;-75
2021/07/03 03:27:59;;;;;;;15.80;6.77;;;14.20;99.90;;;;;;4943277;28;21037;-75
2021/07/03 03:30:26;;;;;;;9.90;7.00;;;14.20;99.90;;;;;;4945265;28;20483;-76
2021/07/03 03:32:53;;;;;;;9.10;6.57;;;14.20;99.90;;;;;;4945979;28;20496;-76
2021/07/03 03:35:20;;;;;;;10.20;6.17;;;14.20;99.90;;;;;;4950552;28;20543;-76
2021/07/03 03:37:47;;;;;;;7.13;5.70;;;14.10;99.90;;;;;;4943660;28;20533;-74
2021/07/03 03:40:16;;;;;;;8.30;5.70;;;14.20;99.90;;;;;;4937983;28;20573;-75
2021/07/03 03:42:43;;;;;;;11.97;6.40;;;14.20;99.90;;;;;;4940767;28;20507;-75
2021/07/03 03:45:11;;;;;;;9.97;6.17;;;14.20;99.90;;;;;;4956185;28;20472;-75
2021/07/03 03:47:38;;;;;;;11.77;6.43;;;14.20;99.90;;;;;;4971522;28;20670;-75
2021/07/03 03:50:06;;;;;;;11.93;7.40;;;14.20;99.90;;;;;;4942841;28;20587;-75
2021/07/03 03:52:33;;;;;;;9.77;6.70;;;14.30;99.90;;;;;;4959605;28;20540;-76
2021/07/03 03:55:00;;;;;;;15.40;7.00;;;14.20;99.90;;;;;;4954148;28;20499;-75
2021/07/03 03:57:30;;;;;;;19.00;6.83;;;14.20;99.90;;;;;;4944407;28;20535;-75
2021/07/03 03:59:58;;;;;;;9.47;6.53;;;14.20;99.90;;;;;;4931842;28;20560;-75
2021/07/03 04:02:25;;;;;;;14.00;8.23;;;14.20;99.90;;;;;;4937632;28;20535;-75
2021/07/03 04:04:52;;;;;;;15.30;6.77;;;14.30;99.90;;;;;;4937431;28;20478;-76
2021/07/03 04:07:19;;;;;;;15.30;7.17;;;14.40;99.90;;;;;;4946106;28;20559;-75
2021/07/03 04:09:47;;;;;;;9.23;6.90;;;14.50;99.90;;;;;;4955088;28;20564;-75
2021/07/03 04:12:14;;;;;;;11.57;7.40;;;14.60;99.90;;;;;;4951251;28;20895;-76
2021/07/03 04:14:43;;;;;;;12.80;9.07;;;14.60;99.90;;;;;;4940054;28;20538;-75
2021/07/03 04:17:10;;;;;;;16.17;9.70;;;14.70;99.90;;;;;;4952262;28;20560;-76
2021/07/03 04:19:37;;;;;;;12.47;8.50;;;14.90;99.90;;;;;;4938383;28;20529;-75
2021/07/03 04:22:04;;;;;;;14.57;9.30;;;14.90;99.90;;;;;;4938713;28;20538;-75
2021/07/03 04:24:31;;;;;;;12.43;7.13;;;15.00;99.90;;;;;;4935832;28;20484;-76
2021/07/03 04:26:58;;;;;;;15.00;9.60;;;15.10;99.90;;;;;;4950763;28;20446;-75
2021/07/03 04:29:25;;;;;;;12.50;9.53;;;15.10;99.90;;;;;;4964009;28;20883;-76
2021/07/03 04:31:53;;;;;;;13.00;8.47;;;15.10;99.90;;;;;;4940052;28;20552;-76
2021/07/03 04:34:20;;;;;;;14.13;9.00;;;15.20;99.90;;;;;;4953485;28;20473;-75
2021/07/03 04:36:47;;;;;;;16.30;10.13;;;15.40;99.90;;;;;;4941294;28;20563;-76
2021/07/03 04:39:15;;;;;;;17.83;8.33;;;15.40;99.90;;;;;;4943792;28;20561;-77
2021/07/03 04:41:42;;;;;;;13.90;8.20;;;15.50;99.90;;;;;;4938536;28;20490;-75
2021/07/03 04:44:09;;;;;;;18.13;8.23;;;15.60;99.90;;;;;;4940310;28;20453;-75
2021/07/03 04:46:36;;;;;;;13.73;7.97;;;15.70;99.90;;;;;;4934718;28;20464;-75
2021/07/03 04:49:05;;;;;;;15.70;9.83;;;15.70;99.90;;;;;;4944138;28;20591;-76
2021/07/03 04:51:32;;;;;;;17.33;11.60;;;15.80;99.90;;;;;;4926989;28;20487;-76
2021/07/03 04:53:59;;;;;;;16.80;9.37;;;15.80;99.90;;;;;;4934385;28;21004;-76
2021/07/03 04:56:26;;;;;;;13.07;9.50;;;15.90;99.90;;;;;;4940443;28;20563;-75
2021/07/03 04:58:54;;;;;;;15.60;9.30;;;16.00;99.90;;;;;;4929034;28;20472;-75
2021/07/03 05:01:21;;;;;;;13.73;8.33;;;16.10;99.90;;;;;;4939182;28;21096;-75
2021/07/03 05:03:47;;;;;;;18.80;11.50;;;16.40;99.90;;;;;;4941176;28;20557;-74
2021/07/03 05:06:16;;;;;;;19.97;10.20;;;16.40;99.90;;;;;;4944296;28;20562;-75
2021/07/03 05:08:43;;;;;;;14.70;9.47;;;16.50;99.90;;;;;;4948524;28;20536;-75
2021/07/03 05:11:10;;;;;;;16.40;9.90;;;16.60;99.90;;;;;;4942772;28;20559;-75
2021/07/03 05:13:37;;;;;;;14.83;8.60;;;16.70;99.90;;;;;;4937491;28;20475;-75
2021/07/03 05:16:05;;;;;;;17.10;10.40;;;16.90;99.90;;;;;;4933338;28;20496;-75
2021/07/03 05:18:32;;;;;;;16.40;10.63;;;16.90;99.90;;;;;;4952980;28;20448;-75
2021/07/03 05:20:58;;;;;;;14.47;9.83;;;17.10;99.90;;;;;;4953113;28;21067;-75
2021/07/03 05:23:27;;;;;;;15.70;9.67;;;17.30;99.90;;;;;;4940249;28;20913;-75
2021/07/03 05:25:55;;;;;;;10.60;8.50;;;17.70;99.90;;;;;;4936605;28;20547;-75
2021/07/03 05:28:22;;;;;;;12.40;9.33;;;18.00;99.90;;;;;;4950219;28;20456;-77
2021/07/03 05:30:49;;;;;;;15.17;8.60;;;18.40;99.90;;;;;;4936148;28;20573;-77
2021/07/03 05:33:16;;;;;;;15.53;9.17;;;18.70;99.90;;;;;;4939261;28;20493;-76
2021/07/03 05:35:43;;;;;;;12.37;8.70;;;19.00;99.90;;;;;;4935103;28;20579;-76
2021/07/03 05:38:11;;;;;;;11.80;7.70;;;19.10;99.90;;;;;;4943194;28;20559;-77
2021/07/03 05:40:39;;;;;;;28.97;18.93;;;19.50;99.90;;;;;;4944790;28;20575;-76
2021/07/03 05:43:06;;;;;;;12.23;9.83;;;19.80;99.90;;;;;;4934507;28;20562;-76
2021/07/03 05:45:33;;;;;;;15.03;8.07;;;20.00;99.90;;;;;;4949294;28;21038;-76
2021/07/03 05:48:00;;;;;;;16.27;9.73;;;20.20;99.90;;;;;;4938799;28;20533;-75
2021/07/03 05:50:29;;;;;;;12.40;7.10;;;20.50;99.90;;;;;;4924741;28;20519;-73
2021/07/03 05:52:56;;;;;;;12.40;8.20;;;20.60;99.90;;;;;;4945985;28;20459;-75
2021/07/03 05:55:23;;;;;;;15.87;8.80;;;20.80;99.90;;;;;;4943390;28;20930;-76
2021/07/03 05:57:52;;;;;;;11.93;8.10;;;20.80;99.90;;;;;;4946806;28;20495;-75
2021/07/03 06:00:20;;;;;;;12.17;8.60;;;20.80;99.90;;;;;;4929967;28;20512;-76
2021/07/03 06:02:46;;;;;;;12.03;7.97;;;21.30;99.90;;;;;;4934485;28;20539;-76
2021/07/03 06:05:14;;;;;;;11.93;8.13;;;22.10;99.90;;;;;;4947616;28;20558;-76
2021/07/03 06:07:42;;;;;;;11.87;8.30;;;22.70;99.90;;;;;;4938201;28;20457;-76
2021/07/03 06:10:10;;;;;;;10.57;8.70;;;22.70;99.90;;;;;;4938771;28;20579;-75
2021/07/03 06:12:37;;;;;;;10.30;7.70;;;22.30;99.90;;;;;;4961267;28;20476;-77
2021/07/03 06:15:07;;;;;;;12.63;8.53;;;22.40;99.90;;;;;;4947152;28;20472;-77
2021/07/03 06:17:34;;;;;;;13.27;9.50;;;22.80;99.90;;;;;;4942114;28;20485;-76
2021/07/03 06:20:01;;;;;;;9.97;8.40;;;22.50;99.90;;;;;;4949909;28;20534;-77
2021/07/03 06:22:28;;;;;;;13.43;9.03;;;22.90;99.90;;;;;;4950829;28;20464;-77
2021/07/03 06:24:55;;;;;;;13.07;8.70;;;22.80;99.90;;;;;;4983898;28;20494;-77
2021/07/03 06:27:22;;;;;;;10.87;7.93;;;22.90;99.90;;;;;;4967419;28;20497;-77
2021/07/03 06:29:49;;;;;;;9.60;7.73;;;22.90;99.90;;;;;;4941487;28;20630;-77
2021/07/03 06:32:17;;;;;;;13.07;8.33;;;22.80;99.90;;;;;;4956198;28;20485;-77
2021/07/03 06:34:44;;;;;;;11.00;7.97;;;23.30;99.90;;;;;;4941804;28;20492;-77
2021/07/03 06:37:11;;;;;;;10.10;7.97;;;23.30;99.90;;;;;;4939764;28;20499;-77
2021/07/03 06:39:38;;;;;;;13.30;7.90;;;22.90;99.90;;;;;;4939647;28;20452;-76
2021/07/03 06:42:05;;;;;;;10.40;9.27;;;22.60;99.90;;;;;;4943265;28;20562;-77
2021/07/03 06:44:32;;;;;;;14.17;8.70;;;22.70;99.90;;;;;;4948833;28;21044;-74
2021/07/03 06:46:59;;;;;;;10.43;7.10;;;22.60;99.90;;;;;;4937517;28;20778;-76
2021/07/03 06:49:28;;;;;;;11.53;8.60;;;22.50;99.90;;;;;;4932854;28;20836;-77
2021/07/03 06:51:55;;;;;;;13.07;9.57;;;22.50;99.90;;;;;;4931433;28;20495;-75
2021/07/03 06:54:21;;;;;;;11.97;8.90;;;22.80;99.90;;;;;;4932756;28;20547;-77
2021/07/03 06:56:57;;;;;;;10.17;8.03;;;23.10;99.90;;;;;;4943424;28;20488;-76
2021/07/03 06:59:24;;;;;;;11.47;8.03;;;23.50;99.90;;;;;;4937073;28;20444;-75
2021/07/03 07:01:51;;;;;;;10.83;8.17;;;23.90;99.90;;;;;;4935714;28;20508;-75
2021/07/03 07:04:20;;;;;;;9.77;7.97;;;24.70;99.90;;;;;;4942346;28;20867;-76
2021/07/03 07:06:49;;;;;;;11.63;7.70;;;25.50;99.90;;;;;;4941868;28;20802;-75
2021/07/03 07:09:16;;;;;;;14.97;8.10;;;25.50;99.90;;;;;;4933566;28;20921;-75
2021/07/03 07:11:43;;;;;;;10.60;9.00;;;25.60;99.90;;;;;;4930030;28;20490;-76
2021/07/03 07:14:10;;;;;;;13.13;8.90;;;26.00;99.90;;;;;;4947679;28;20500;-75
2021/07/03 07:16:37;;;;;;;12.80;8.37;;;26.50;99.90;;;;;;4951398;28;21015;-76
2021/07/03 07:19:04;;;;;;;9.43;8.27;;;26.70;99.90;;;;;;4962305;28;20777;-76
2021/07/03 07:21:32;;;;;;;16.60;10.30;;;26.50;99.90;;;;;;4940460;28;20487;-75
2021/07/03 07:24:01;;;;;;;13.23;9.63;;;26.80;99.90;;;;;;4946313;28;20582;-76
2021/07/03 07:26:30;;;;;;;15.97;11.33;;;26.90;99.90;;;;;;4947561;28;20867;-76
2021/07/03 07:28:57;;;;;;;21.37;9.20;;;26.80;99.90;;;;;;4939077;28;20541;-76
2021/07/03 07:31:24;;;;;;;17.30;10.97;;;26.50;99.90;;;;;;4933207;28;20574;-75
2021/07/03 07:33:51;;;;;;;12.40;8.77;;;26.30;99.90;;;;;;4961625;28;20455;-76
2021/07/03 07:36:19;;;;;;;16.40;11.43;;;26.60;99.90;;;;;;4942948;28;20827;-76
2021/07/03 07:38:45;;;;;;;13.20;10.90;;;26.70;99.90;;;;;;4941732;28;20443;-76
2021/07/03 07:41:15;;;;;;;15.40;10.70;;;27.20;99.90;;;;;;4952050;28;20563;-76
2021/07/03 07:43:42;;;;;;;19.03;9.67;;;28.10;99.90;;;;;;4931569;28;20973;-76
2021/07/03 07:46:11;;;;;;;12.87;9.87;;;28.20;99.90;;;;;;4929337;28;20469;-74
2021/07/03 07:48:38;;;;;;;13.10;10.27;;;28.10;99.90;;;;;;4934650;28;20535;-74
2021/07/03 07:51:05;;;;;;;13.47;9.93;;;28.00;99.90;;;;;;4933144;28;20993;-77
2021/07/03 07:53:33;;;;;;;16.60;9.37;;;27.60;99.90;;;;;;4943088;28;20890;-76
2021/07/03 07:56:00;;;;;;;13.53;8.93;;;27.30;99.90;;;;;;4940385;28;20587;-75
2021/07/03 07:58:29;;;;;;;14.23;9.27;;;26.90;99.90;;;;;;4944777;28;20970;-74
2021/07/03 08:00:56;;;;;;;12.93;9.10;;;27.00;99.90;;;;;;4963097;28;20671;-76
2021/07/03 08:03:23;;;;;;;14.83;8.90;;;27.30;99.90;;;;;;4951975;28;20941;-76
2021/07/03 08:05:50;;;;;;;13.60;9.30;;;27.50;99.90;;;;;;4946071;28;20452;-76
2021/07/03 08:08:17;;;;;;;14.40;9.57;;;28.30;99.90;;;;;;4953962;28;20496;-76
2021/07/03 08:10:44;;;;;;;16.93;11.10;;;28.40;99.90;;;;;;4954825;28;20502;-76
2021/07/03 08:13:11;;;;;;;13.07;8.47;;;28.70;99.90;;;;;;4949701;28;20515;-76
2021/07/03 08:15:40;;;;;;;15.27;9.17;;;29.30;99.90;;;;;;4966340;28;20582;-76
2021/07/03 08:18:07;;;;;;;10.80;8.13;;;29.90;99.90;;;;;;4939998;28;20571;-76
2021/07/03 08:20:35;;;;;;;14.20;10.03;;;30.10;99.90;;;;;;4948901;28;20538;-76
2021/07/03 08:23:02;;;;;;;12.87;9.87;;;30.40;99.90;;;;;;4955790;28;20464;-76
2021/07/03 08:25:30;;;;;;;12.80;9.27;;;30.60;99.90;;;;;;4941015;28;20524;-76
2021/07/03 08:27:57;;;;;;;15.00;8.67;;;30.60;99.90;;;;;;4959204;28;20871;-76
2021/07/03 08:30:24;;;;;;;13.67;9.37;;;30.60;99.90;;;;;;4948851;28;20571;-76
2021/07/03 08:32:53;;;;;;;13.73;9.40;;;30.30;99.90;;;;;;4944982;28;20846;-76
2021/07/03 08:35:20;;;;;;;20.27;10.67;;;30.20;99.90;;;;;;4942874;28;20452;-76
2021/07/03 08:37:48;;;;;;;13.63;10.87;;;30.80;99.90;;;;;;4947585;28;20526;-76
2021/07/03 08:40:17;;;;;;;11.00;8.70;;;31.00;99.90;;;;;;4943074;28;20482;-75
2021/07/03 08:42:44;;;;;;;12.33;8.20;;;30.40;99.90;;;;;;4943638;28;20502;-76
2021/07/03 08:45:12;;;;;;;10.00;7.43;;;31.00;99.90;;;;;;4962239;28;20456;-77
2021/07/03 08:47:40;;;;;;;9.53;7.73;;;30.30;99.90;;;;;;4957302;28;20606;-77
2021/07/03 08:50:11;;;;;;;10.47;7.53;;;30.20;99.90;;;;;;4946324;28;20590;-76
2021/07/03 08:52:38;;;;;;;9.60;7.80;;;30.50;99.90;;;;;;4978509;28;20534;-76
2021/07/03 08:55:12;;;;;;;11.53;8.37;;;30.80;99.90;;;;;;4976041;28;20900;-75
2021/07/03 08:57:44;;;;;;;12.13;8.93;;;30.90;99.90;;;;;;4950016;28;20495;-77
2021/07/03 09:00:13;;;;;;;9.90;8.60;;;31.10;99.90;;;;;;4939912;28;20484;-76
2021/07/03 09:02:43;;;;;;;8.70;7.70;;;31.50;99.90;;;;;;4953318;28;20460;-76
2021/07/03 09:05:23;;;;;;;15.47;9.13;;;31.70;99.90;;;;;;4940556;28;20471;-76
2021/07/03 09:07:50;;;;;;;10.33;8.33;;;31.70;99.90;;;;;;4945772;28;20585;-75
2021/07/03 09:10:22;;;;;;;10.03;8.57;;;31.50;99.30;;;;;;4945170;28;20499;-76
2021/07/03 09:12:50;;;;;;;9.73;8.13;;;31.40;98.60;;;;;;4962415;28;20492;-76
2021/07/03 09:15:20;;;;;;;15.33;7.70;;;31.40;98.00;;;;;;4949173;28;20551;-76
2021/07/03 09:17:51;;;;;;;13.57;9.70;;;31.40;98.80;;;;;;4950306;28;20866;-76
2021/07/03 09:20:29;;;;;;;11.83;6.57;;;32.00;96.40;;;;;;4945141;28;20515;-76
2021/07/03 09:23:08;;;;;;;14.83;8.67;;;32.00;98.90;;;;;;4945611;28;20518;-76
2021/07/03 09:25:36;;;;;;;8.40;7.60;;;32.50;96.10;;;;;;4949993;28;20459;-76
2021/07/03 09:28:10;;;;;;;10.73;7.73;;;32.90;94.50;;;;;;4950329;28;20494;-77
2021/07/03 09:30:38;;;;;;;9.67;8.07;;;33.30;93.70;;;;;;4937278;28;21189;-77
2021/07/03 09:33:05;;;;;;;15.07;8.50;;;33.70;93.40;;;;;;4960932;28;20853;-77
2021/07/03 09:35:33;;;;;;;11.40;7.67;;;33.40;92.30;;;;;;4980202;28;20487;-77
2021/07/03 09:38:01;;;;;;;10.10;7.53;;;33.20;90.80;;;;;;4948611;28;20963;-77
2021/07/03 09:40:30;;;;;;;14.87;7.57;;;33.10;89.80;;;;;;4946919;28;20479;-77
2021/07/03 09:43:04;;;;;;;9.27;6.60;;;33.20;88.80;;;;;;4963359;28;20470;-75
2021/07/03 09:45:31;;;;;;;10.00;6.33;;;32.70;91.00;;;;;;4951949;29;20451;-78
2021/07/03 09:48:04;;;;;;;9.77;7.20;;;32.90;90.10;;;;;;4949900;28;20560;-77
2021/07/03 09:50:33;;;;;;;9.37;8.40;;;32.70;88.20;;;;;;4943064;28;20484;-77
2021/07/03 09:53:00;;;;;;;13.67;6.63;;;33.50;90.30;;;;;;4946712;28;20535;-77
2021/07/03 09:55:28;;;;;;;9.67;6.73;;;34.20;85.50;;;;;;4934465;28;20460;-77
2021/07/03 09:57:54;;;;;;;11.90;7.03;;;33.90;86.50;;;;;;4941114;28;20457;-77
2021/07/03 10:00:22;;;;;;;9.17;8.27;;;33.90;84.20;;;;;;4945268;28;20504;-76
2021/07/03 10:02:49;;;;;;;9.17;7.23;;;33.40;84.20;;;;;;4943099;28;20583;-77
2021/07/03 10:05:19;;;;;;;9.10;7.30;;;33.50;87.70;;;;;;4952119;28;20863;-76
2021/07/03 10:07:54;;;;;;;7.67;6.43;;;34.10;87.50;;;;;;4956943;28;20931;-75
2021/07/03 10:10:25;;;;;;;16.57;7.63;;;34.70;81.80;;;;;;4944218;28;20602;-78
2021/07/03 10:12:58;;;;;;;6.90;6.10;;;35.20;81.20;;;;;;4939972;28;20465;-77
2021/07/03 10:15:30;;;;;;;9.77;6.70;;;36.10;79.90;;;;;;4941891;28;20464;-77
2021/07/03 10:18:09;;;;;;;9.30;6.60;;;36.60;74.00;;;;;;4943610;28;20985;-77
2021/07/03 10:20:36;;;;;;;8.43;6.80;;;36.00;71.00;;;;;;4929387;28;20473;-77
2021/07/03 10:23:05;;;;;;;9.33;7.27;;;35.10;71.70;;;;;;4957475;28;20922;-77
2021/07/03 10:25:34;;;;;;;8.33;6.80;;;35.30;76.10;;;;;;4952209;28;20476;-77
2021/07/03 10:28:04;;;;;;;8.00;6.40;;;35.90;70.80;;;;;;4949702;28;20480;-78
2021/07/03 10:30:33;;;;;;;11.83;8.33;;;36.00;69.90;;;;;;4936727;28;20492;-77
2021/07/03 10:33:01;;;;;;;7.90;6.37;;;33.90;72.40;;;;;;4925532;28;20909;-77
2021/07/03 10:35:39;;;;;;;7.63;6.53;;;34.10;77.50;;;;;;4935755;28;20502;-76
2021/07/03 10:38:21;;;;;;;7.40;6.57;;;35.20;72.70;;;;;;4937868;28;20646;-77
2021/07/03 10:40:49;;;;;;;10.70;6.70;;;34.50;70.60;;;;;;4937444;28;20481;-77
2021/07/03 10:43:16;;;;;;;9.17;6.97;;;34.90;74.40;;;;;;4953674;28;20503;-76
2021/07/03 10:45:51;;;;;;;6.80;6.07;;;34.70;69.50;;;;;;4953335;28;20495;-76
2021/07/03 10:48:20;;;;;;;14.77;6.17;;;33.80;72.10;;;;;;4947195;28;20523;-77
2021/07/03 10:50:48;;;;;;;11.03;6.80;;;33.60;72.20;;;;;;4963310;28;20487;-77
2021/07/03 10:53:29;;;;;;;6.47;5.87;;;34.20;72.00;;;;;;4948703;28;21042;-77
2021/07/03 10:56:08;;;;;;;6.73;6.00;;;33.90;77.30;;;;;;4946741;28;20544;-77
2021/07/03 10:58:37;;;;;;;11.13;6.40;;;34.30;70.70;;;;;;4945297;28;20517;-75
2021/07/03 11:01:10;;;;;;;8.30;7.07;;;34.80;69.80;;;;;;4946151;28;20890;-77
2021/07/03 11:03:45;;;;;;;5.90;5.07;;;33.90;68.80;;;;;;4946618;28;20529;-75
2021/07/03 11:06:14;;;;;;;10.60;5.27;;;34.10;70.80;;;;;;4959861;28;20475;-76
2021/07/03 11:08:43;;;;;;;6.30;5.77;;;33.80;70.90;;;;;;4950466;28;20469;-77
2021/07/03 11:11:12;;;;;;;5.93;5.00;;;32.90;69.70;;;;;;4939766;28;20484;-75
2021/07/03 11:13:39;;;;;;;7.60;6.57;;;33.10;72.50;;;;;;4937293;28;20834;-76
2021/07/03 11:16:09;;;;;;;8.07;6.30;;;33.00;75.80;;;;;;4944719;28;20546;-77
2021/07/03 11:18:39;;;;;;;9.20;6.57;;;32.90;71.20;;;;;;4943099;28;20483;-76
2021/07/03 11:21:08;;;;;;;10.10;6.13;;;32.40;74.00;;;;;;4941035;28;20579;-77
2021/07/03 11:23:36;;;;;;;7.10;6.40;;;32.10;72.70;;;;;;4938927;28;20579;-74
2021/07/03 11:26:10;;;;;;;6.97;5.93;;;31.90;73.30;;;;;;4950328;28;20462;-75
2021/07/03 11:28:38;;;;;;;7.57;6.50;;;32.10;75.50;;;;;;4941975;28;20452;-76
2021/07/03 11:31:05;;;;;;;6.17;5.37;;;33.60;73.00;;;;;;4943545;28;20494;-76
2021/07/03 11:33:35;;;;;;;7.00;5.60;;;33.90;71.30;;;;;;4941949;28;20568;-75
2021/07/03 11:36:04;;;;;;;9.53;5.93;;;33.90;70.60;;;;;;4948361;28;20560;-77
2021/07/03 11:38:32;;;;;;;6.33;5.73;;;33.30;75.00;;;;;;4951301;28;20460;-76
2021/07/03 11:41:01;;;;;;;9.23;6.17;;;33.30;72.90;;;;;;4950538;28;20564;-76
2021/07/03 11:43:30;;;;;;;6.67;5.67;;;32.90;70.90;;;;;;4942895;28;20555;-75
2021/07/03 11:45:58;;;;;;;9.93;6.60;;;32.60;70.60;;;;;;4947618;28;20539;-77
2021/07/03 11:48:27;;;;;;;6.20;5.50;;;33.60;71.50;;;;;;4945036;28;20550;-77
2021/07/03 11:50:58;;;;;;;8.90;5.83;;;34.20;69.20;;;;;;4937547;28;20489;-79
2021/07/03 11:53:28;;;;;;;5.40;4.87;;;36.00;68.40;;;;;;4949462;28;21519;-77
2021/07/03 11:55:56;;;;;;;7.10;5.53;;;37.00;62.30;;;;;;4948205;28;20486;-77
2021/07/03 11:58:25;;;;;;;8.10;4.93;;;37.00;62.50;;;;;;4946464;28;20577;-77
2021/07/03 12:00:54;;;;;;;8.13;5.27;;;37.40;63.20;;;;;;4933968;28;20483;-76
2021/07/03 12:03:25;;;;;;;6.23;5.63;;;36.80;59.00;;;;;;4944577;28;20909;-77
2021/07/03 12:05:54;;;;;;;9.47;6.43;;;36.50;58.50;;;;;;4943522;28;20475;-75
2021/07/03 12:08:22;;;;;;;8.13;5.60;;;36.00;60.90;;;;;;4945617;28;20547;-76
2021/07/03 12:10:50;;;;;;;5.40;4.90;;;35.70;61.20;;;;;;4941894;28;20519;-76
2021/07/03 12:13:22;;;;;;;5.90;4.93;;;36.70;60.80;;;;;;4934314;28;20570;-75
2021/07/03 12:15:51;;;;;;;7.57;6.70;;;37.50;59.20;;;;;;4945284;28;20460;-76
2021/07/03 12:18:30;;;;;;;5.37;4.87;;;37.90;56.90;;;;;;4947838;28;20870;-76
2021/07/03 12:21:06;;;;;;;6.37;5.10;;;38.30;59.00;;;;;;4941563;28;20570;-75
2021/07/03 12:23:33;;;;;;;6.60;5.20;;;38.10;56.10;;;;;;4942448;28;20501;-75
2021/07/03 12:26:02;;;;;;;6.70;5.07;;;36.40;57.80;;;;;;4941207;28;20460;-75
2021/07/03 12:28:29;;;;;;;8.07;5.50;;;36.60;58.90;;;;;;4933563;28;20544;-77
2021/07/03 12:31:05;;;;;;;5.80;5.20;;;37.20;58.40;;;;;;4948993;28;20507;-77
2021/07/03 12:33:35;;;;;;;5.80;5.30;;;38.20;56.70;;;;;;4936194;28;20445;-77
2021/07/03 12:36:02;;;;;;;6.00;5.40;;;37.10;58.40;;;;;;4932436;28;20544;-77
2021/07/03 12:38:30;;;;;;;6.67;6.07;;;37.40;56.40;;;;;;4946628;28;20483;-76
2021/07/03 12:40:58;;;;;;;5.10;4.60;;;37.30;59.10;;;;;;4947634;28;20499;-77
2021/07/03 12:43:36;;;;;;;4.97;4.57;;;37.90;57.00;;;;;;4947679;28;20471;-76
2021/07/03 12:46:04;;;;;;;5.10;4.30;;;38.00;55.80;;;;;;4949890;28;20452;-78